Latest Weather Observations for Perth Airport

IDW60801

Issued at 10:02 am WST Wednesday 10 February 2016 (issued every 30 minutes, with the page automatically refreshed every 10 minutes)

About weather observations | Map of weather stations | Latest weather observations for WA | Other Formats
Station Details ID: 009021 Name: PERTH AIRPORT Lat: -31.93 Lon: 115.98 Height: 15.4 m
Data from the previous 72 hours. | See also: Recent months at Perth Airport
Date/Time
WST
Temp
°C
App
Temp
°C
Dew
Point
Rel
Hum
%
Delta-T
°C
Wind Press
QNH
hPa
Press
MSL
hPa
Rain
since 9 am
mm
Dir
 
Spd
km/h
Gust
km/h
Spd
kts
Gust
kts
10/09:30am 32.6 30.3 9.0 23 13.3 NNE 11 17 6 9 1013.5 - 0.0
10/09:00am 30.7 27.9 9.9 27 11.8 NE 15 20 8 11 1013.9 1013.8 0.0
10/08:30am 29.4 26.9 9.6 29 11.1 E 13 19 7 10 1014.4 - 0.0
10/08:00am 28.6 26.4 9.3 30 10.7 ENE 11 22 6 12 1014.4 - 0.0
10/07:30am 28.3 27.6 12.1 36 9.4 WNW 7 11 4 6 1014.3 - 0.0
10/07:00am 26.2 25.0 11.7 40 8.3 WSW 9 15 5 8 1014.1 - 0.0
10/06:30am 25.1 23.5 10.1 38 8.3 ENE 9 13 5 7 1013.6 - 0.0
10/06:00am 25.5 22.7 8.7 34 9.1 ENE 13 15 7 8 1013.2 1013.1 0.0
10/05:30am 25.8 23.1 8.9 34 9.2 NE 13 19 7 10 1012.9 - 0.0
10/05:00am 26.2 23.4 8.4 32 9.6 NE 13 19 7 10 1012.6 - 0.0
10/04:30am 26.3 23.2 8.9 33 9.5 ENE 15 19 8 10 1012.4 - 0.0
10/04:00am 26.7 24.0 9.0 32 9.7 NE 13 15 7 8 1012.3 - 0.0
10/03:30am 27.3 24.6 8.9 31 10.1 NNE 13 17 7 9 1012.1 - 0.0
10/03:00am 27.8 24.4 9.1 31 10.3 ENE 17 24 9 13 1012.0 1011.9 0.0
10/02:30am 28.1 25.4 8.8 29 10.6 ENE 13 20 7 11 1011.9 - 0.0
10/02:00am 28.2 24.8 9.2 30 10.5 ENE 17 24 9 13 1011.9 - 0.0
10/01:49am 27.8 24.0 9.7 32 10.1 ENE 20 26 11 14 1012.1 - 0.0
10/01:30am 22.8 21.4 10.9 47 6.6 SSW 9 13 5 7 1012.2 - 0.0
10/01:00am 21.6 19.8 9.5 46 6.5 SSW 9 11 5 6 1012.5 - 0.0
10/12:30am 21.1 19.8 9.8 48 6.1 S 7 11 4 6 1012.8 - 0.0
10/12:00am 21.5 20.6 10.5 49 6.0 S 6 9 3 5 1013.1 1013.0 0.0
 
Date/Time
WST
Temp
°C
App
Temp
°C
Dew
Point
Rel
Hum
%
Delta-T
°C
Wind Press
QNH
hPa
Press
MSL
hPa
Rain
since 9 am
mm
Dir
 
Spd
km/h
Gust
km/h
Spd
kts
Gust
kts
09/11:30pm 22.4 21.2 9.6 44 6.9 S 6 7 3 4 1013.3 - 0.0
09/11:00pm 22.4 21.2 10.3 46 6.6 SSW 7 9 4 5 1013.3 - 0.0
09/10:30pm 23.3 23.5 10.6 44 7.0 CALM 0 0 0 0 1013.2 - 0.0
09/10:00pm 24.6 23.0 8.8 36 8.5 SSW 7 11 4 6 1013.3 - 0.0
09/09:30pm 24.9 23.8 10.5 40 8.0 SSW 7 11 4 6 1013.1 - 0.0
09/09:00pm 26.1 24.5 10.3 37 8.8 SSW 9 11 5 6 1013.0 1012.9 0.0
09/08:30pm 28.8 26.8 10.2 31 10.5 SSW 11 15 6 8 1012.9 - 0.0
09/08:00pm 31.3 28.3 7.8 23 12.9 SW 13 17 7 9 1012.8 - 0.0
09/07:30pm 32.4 29.1 6.2 19 14.1 SW 13 19 7 10 1012.5 - 0.0
09/07:00pm 34.2 30.1 4.5 15 15.7 SW 15 19 8 10 1012.4 - 0.0
09/06:30pm 35.8 30.5 4.9 14 16.6 SW 22 28 12 15 1012.3 - 0.0
09/06:00pm 36.6 32.4 5.6 14 16.9 WSW 17 22 9 12 1012.1 1012.0 0.0
09/05:30pm 37.7 32.3 2.5 11 18.4 WSW 20 28 11 15 1012.2 - 0.0
09/05:00pm 38.8 34.4 2.5 10 19.1 W 15 19 8 10 1012.1 - 0.0
09/04:30pm 39.1 33.8 2.8 10 19.2 SW 20 28 11 15 1012.1 - 0.0
09/04:00pm 38.5 31.5 2.1 10 19.0 W 28 35 15 19 1012.1 - 0.0
09/03:30pm 39.3 33.2 2.5 10 19.4 WSW 24 32 13 17 1012.0 - 0.0
09/03:00pm 39.7 33.7 1.0 9 20.0 W 22 33 12 18 1012.1 1012.0 0.0
09/02:30pm 40.6 34.7 1.7 9 20.4 WSW 22 28 12 15 1012.3 - 0.0
09/02:00pm 40.4 35.3 2.9 10 20.0 WSW 19 30 10 16 1012.4 - 0.0
09/01:30pm 40.7 35.1 3.3 10 20.1 WSW 22 28 12 15 1012.7 - 0.0
09/01:00pm 40.8 35.1 2.7 9 20.3 WSW 22 32 12 17 1012.9 - 0.0
09/12:30pm 40.3 34.7 3.5 10 19.8 WSW 22 30 12 16 1013.0 - 0.0
09/12:00pm 41.5 36.8 1.1 8 21.1 NW 15 22 8 12 1013.3 1013.2 0.0
09/11:30am 41.5 36.8 0.6 8 21.2 NNW 15 22 8 12 1013.8 - 0.0
09/11:00am 39.9 35.0 1.9 9 19.9 N 17 28 9 15 1014.2 - 0.0
09/10:30am 38.9 33.8 3.1 11 19.0 N 19 26 10 14 1014.6 - 0.0
09/10:00am 37.0 31.8 3.5 12 17.7 NE 20 28 11 15 1014.6 - 0.0
09/09:30am 35.7 31.4 3.1 13 17.0 N 15 24 8 13 1014.9 - 0.0
09/09:00am 33.9 30.2 4.2 15 15.6 ENE 13 20 7 11 1014.9 1014.8 0.0
09/08:30am 31.8 28.2 3.2 16 14.6 NE 11 19 6 10 1015.1 - 0.0
09/08:00am 30.3 25.5 2.4 17 13.9 ENE 17 19 9 10 1015.0 - 0.0
09/07:30am 28.9 24.1 2.4 18 13.1 E 17 22 9 12 1015.0 - 0.0
09/07:00am 27.3 23.2 4.1 22 11.7 E 15 26 8 14 1014.9 - 0.0
09/06:30am 25.6 22.7 4.5 25 10.6 ENE 9 13 5 7 1014.4 - 0.0
09/06:00am 25.8 21.6 1.4 20 11.6 ENE 13 19 7 10 1013.7 1013.6 0.0
09/05:30am 24.9 19.4 2.1 22 10.9 E 20 26 11 14 1013.4 - 0.0
09/05:00am 25.9 23.7 3.1 23 11.2 ENE 4 9 2 5 1013.4 - 0.0
09/04:30am 25.7 20.8 1.9 21 11.4 E 17 20 9 11 1012.8 - 0.0
09/04:00am 24.9 20.6 3.2 24 10.6 E 15 20 8 11 1012.7 - 0.0
09/03:30am 25.5 20.8 3.3 23 10.9 ENE 17 19 9 10 1012.8 - 0.0
09/03:00am 26.0 21.8 3.9 24 11.0 NNE 15 20 8 11 1012.7 1012.6 0.0
09/02:30am 26.4 23.1 4.4 24 11.1 NNE 11 15 6 8 1012.7 - 0.0
09/02:00am 25.8 21.8 4.9 26 10.6 NNE 15 17 8 9 1012.6 - 0.0
09/01:30am 21.3 19.2 8.1 42 6.9 SSE 9 11 5 6 1013.0 - 0.0
09/01:00am 21.6 20.4 8.0 41 7.1 SSE 4 11 2 6 1013.3 - 0.0
09/12:30am 22.3 22.1 9.0 42 7.1 CALM 0 4 0 2 1013.5 - 0.0
09/12:00am 23.3 22.1 10.2 43 7.2 SSE 7 9 4 5 1013.7 1013.6 0.0
 
Date/Time
WST
Temp
°C
App
Temp
°C
Dew
Point
Rel
Hum
%
Delta-T
°C
Wind Press
QNH
hPa
Press
MSL
hPa
Rain
since 9 am
mm
Dir
 
Spd
km/h
Gust
km/h
Spd
kts
Gust
kts
08/11:30pm 24.4 22.7 8.5 36 8.5 SSE 7 7 4 4 1014.0 - 0.0
08/11:00pm 25.7 25.3 8.2 33 9.4 CALM 0 0 0 0 1014.1 - 0.0
08/10:30pm 26.9 26.5 8.2 30 10.1 CALM 0 4 0 2 1014.2 - 0.0
08/10:00pm 29.5 26.5 7.5 25 11.9 S 13 17 7 9 1014.1 - 0.0
08/09:30pm 32.6 28.0 3.9 16 14.9 S 17 19 9 10 1014.0 - 0.0
08/09:00pm 32.5 28.3 5.7 18 14.3 S 17 19 9 10 1013.8 1013.7 0.0
08/08:30pm 33.3 28.4 4.3 16 15.2 S 19 22 10 12 1013.5 - 0.0
08/08:00pm 34.7 30.4 3.4 14 16.3 S 15 19 8 10 1013.2 - 0.0
08/07:30pm 35.8 31.0 2.6 12 17.2 S 17 26 9 14 1012.9 - 0.0
08/07:00pm 37.5 31.6 2.0 11 18.4 S 22 32 12 17 1012.5 - 0.0
08/06:30pm 38.8 31.5 -0.3 8 19.7 SSW 28 35 15 19 1012.1 - 0.0
08/06:00pm 39.8 32.3 -1.2 7 20.5 SSW 28 32 15 17 1011.7 1011.6 0.0
08/05:30pm 40.8 34.6 0.0 8 20.9 SW 22 30 12 16 1011.4 - 0.0
08/05:00pm 41.2 33.9 0.3 8 21.1 WSW 28 35 15 19 1011.3 - 0.0
08/04:30pm 41.7 38.1 0.8 8 21.3 NNE 9 26 5 14 1011.5 - 0.0
08/04:00pm 41.7 38.1 0.3 8 21.4 N 9 19 5 10 1011.7 - 0.0
08/03:30pm 41.4 38.0 1.8 9 20.9 N 9 13 5 7 1011.8 - 0.0
08/03:00pm 41.9 37.1 0.0 7 21.6 N 15 26 8 14 1012.3 1012.2 0.0
08/02:30pm 41.8 38.0 2.0 8 21.1 NE 11 19 6 10 1012.6 - 0.0
08/02:00pm 41.6 37.3 1.0 8 21.2 NNW 13 22 7 12 1013.1 - 0.0
08/01:30pm 41.6 38.4 3.2 9 20.7 E 9 15 5 8 1013.5 - 0.0
08/01:00pm 39.9 35.3 1.5 9 20.0 NNE 15 26 8 14 1013.9 - 0.0
08/12:30pm 40.8 35.5 1.8 9 20.5 NNE 19 26 10 14 1014.2 - 0.0
08/12:00pm 40.3 34.4 1.7 9 20.2 NNE 22 33 12 18 1014.6 1014.5 0.0
08/11:30am 38.9 32.6 1.8 10 19.3 NNE 24 32 13 17 1015.1 - 0.0
08/11:00am 38.7 32.1 2.1 10 19.1 ENE 26 35 14 19 1015.3 - 0.0
08/10:30am 37.4 29.9 1.1 10 18.5 NE 30 39 16 21 1015.7 - 0.0
08/10:00am 36.4 28.9 1.5 11 17.8 NE 30 37 16 20 1015.9 - 0.0
08/09:30am 35.2 27.7 1.3 12 17.1 NE 30 41 16 22 1015.9 - 0.0
08/09:00am 34.5 27.4 1.2 12 16.7 NE 28 39 15 21 1016.0 1015.9 0.0
08/08:30am 32.6 28.0 3.8 16 14.9 ENE 17 26 9 14 1016.1 - 0.0
08/08:00am 29.9 25.1 4.5 20 13.1 ENE 19 26 10 14 1016.0 - 0.0
08/07:30am 28.3 23.2 4.3 21 12.2 ENE 20 26 11 14 1016.0 - 0.0
08/07:00am 26.6 20.9 6.5 27 10.5 ENE 26 30 14 16 1015.9 - 0.0
08/06:30am 25.6 19.9 6.6 29 9.9 ENE 26 33 14 18 1015.7 - 0.0
08/06:00am 25.5 19.7 6.4 29 9.9 ENE 26 37 14 20 1015.2 1015.1 0.0
08/05:30am 25.7 19.9 6.2 28 10.1 ENE 26 32 14 17 1015.0 - 0.0
08/05:00am 26.1 20.2 6.0 27 10.4 ENE 26 33 14 18 1014.7 - 0.0
08/04:30am 26.4 19.4 5.9 27 10.6 ENE 32 37 17 20 1014.4 - 0.0
08/04:00am 26.5 20.3 6.1 27 10.6 ENE 28 35 15 19 1014.2 - 0.0
08/03:30am 26.3 20.5 6.3 28 10.4 ENE 26 35 14 19 1014.1 - 0.0
08/03:00am 26.5 21.5 6.4 27 10.5 ENE 22 30 12 16 1014.1 1014.0 0.0
08/02:30am 26.3 23.9 6.9 29 10.2 NE 9 15 5 8 1014.2 - 0.0
08/02:00am 25.1 22.5 7.8 33 9.2 NE 11 13 6 7 1014.3 - 0.0
08/01:30am 22.2 19.5 9.1 43 7.0 N 13 15 7 8 1014.5 - 0.0
08/01:00am 21.1 20.0 10.7 51 5.7 SW 7 9 4 5 1014.4 - 0.0
08/12:30am 21.8 21.1 10.0 47 6.4 SW 4 11 2 6 1014.7 - 0.0
08/12:00am 22.7 20.4 10.3 45 6.8 SSW 13 15 7 8 1014.9 1014.8 0.0
 
Date/Time
WST
Temp
°C
App
Temp
°C
Dew
Point
Rel
Hum
%
Delta-T
°C
Wind Press
QNH
hPa
Press
MSL
hPa
Rain
since 9 am
mm
Dir
 
Spd
km/h
Gust
km/h
Spd
kts
Gust
kts
07/11:30pm 24.0 21.6 9.9 41 7.7 SSW 13 15 7 8 1015.1 - 0.0
07/11:00pm 27.4 24.7 9.0 31 10.1 S 13 17 7 9 1015.2 - 0.0
07/10:30pm 29.3 27.0 7.4 25 11.8 S 9 11 5 6 1015.5 - 0.0
07/10:00pm 26.5 25.2 11.1 38 8.7 S 9 13 5 7 1015.6 - 0.0
07/09:30pm 29.4 26.2 10.1 30 10.9 S 17 20 9 11 1015.6 - 0.0
07/09:00pm 30.8 26.9 9.5 26 12.0 S 20 26 11 14 1015.3 1015.2 0.0
07/08:30pm 31.7 27.3 8.8 24 12.8 S 22 28 12 15 1015.0 - 0.0
07/08:00pm 32.4 26.8 8.9 23 13.2 S 28 33 15 18 1014.6 - 0.0
07/07:30pm 32.9 28.1 8.9 22 13.5 S 24 30 13 16 1014.2 - 0.0
07/07:00pm 34.0 27.6 6.8 18 14.9 S 30 33 16 18 1014.0 - 0.0
07/06:30pm 35.4 29.0 5.4 15 16.2 S 28 37 15 20 1013.5 - 0.0
07/06:00pm 36.1 29.8 5.5 15 16.6 SSW 28 35 15 19 1013.1 1013.0 0.0
07/05:30pm 37.2 30.4 5.1 14 17.4 SSW 30 35 16 19 1013.0 - 0.0
07/05:00pm 37.3 31.2 6.4 15 17.1 SW 28 35 15 19 1012.9 - 0.0
07/04:30pm 38.6 34.2 7.5 15 17.6 SW 20 33 11 18 1012.6 - 0.0
07/04:00pm 39.1 34.4 1.1 9 19.6 SE 15 26 8 14 1012.7 - 0.0
07/03:30pm 39.0 34.3 1.2 9 19.5 NE 15 22 8 12 1012.8 - 0.0
07/03:00pm 39.0 35.3 2.1 10 19.3 ENE 11 26 6 14 1013.1 1013.0 0.0
07/02:30pm 38.5 33.9 3.7 11 18.6 E 17 26 9 14 1013.4 - 0.0
07/02:00pm 38.4 34.7 4.6 12 18.3 NNE 13 28 7 15 1013.7 - 0.0
07/01:30pm 38.9 35.7 5.1 12 18.5 SE 11 19 6 10 1013.9 - 0.0
07/01:00pm 38.1 33.5 5.7 13 17.8 NNE 19 30 10 16 1014.4 - 0.0
07/12:30pm 37.8 33.6 7.5 15 17.1 N 19 30 10 16 1014.7 - 0.0
07/12:00pm 36.4 32.0 7.5 17 16.2 NNE 20 30 11 16 1015.1 1015.0 0.0
07/11:30am 35.3 30.4 8.4 19 15.2 NNE 24 35 13 19 1015.3 - 0.0
07/11:00am 33.8 28.8 9.7 22 13.8 NE 26 32 14 17 1015.5 - 0.0
07/10:30am 32.6 27.9 10.6 26 12.7 ENE 26 33 14 18 1015.8 - 0.0

Other Formats:

Comma delimited format used in spreadsheet applications
http://www.bom.gov.au/fwo/IDW60801/IDW60801.94610.axf

JavaScript Object Notation format (JSON) in row-major order
http://www.bom.gov.au/fwo/IDW60801/IDW60801.94610.json